createdAt,value
2023-12-30T00:00:18.554Z,66.96
2023-12-30T00:02:49.489Z,66.35
2023-12-30T00:05:17.996Z,67.01
2023-12-30T00:07:46.241Z,68.22
2023-12-30T00:10:13.692Z,68.71
2023-12-30T00:12:41.047Z,70.23
2023-12-30T00:15:09.028Z,69.59
2023-12-30T00:17:36.253Z,69.28
2023-12-30T00:20:04.950Z,70.12
2023-12-30T00:22:32.040Z,68.93
2023-12-30T00:24:59.205Z,70.04
2023-12-30T00:27:26.722Z,69.52
2023-12-30T00:29:53.724Z,69.03
2023-12-30T00:32:20.563Z,68.87
2023-12-30T00:34:47.806Z,69.02
2023-12-30T00:37:20.202Z,70.15
2023-12-30T00:39:48.536Z,69.71
2023-12-30T00:42:15.526Z,68.68
2023-12-30T00:44:42.632Z,68.43
2023-12-30T00:47:09.640Z,69.35
2023-12-30T00:49:36.886Z,67.99
2023-12-30T00:52:04.286Z,68.63
2023-12-30T00:54:38.006Z,68.60
2023-12-30T00:57:08.655Z,68.17
2023-12-30T00:59:35.625Z,69.29
2023-12-30T01:02:02.644Z,68.33
2023-12-30T01:04:29.701Z,67.98
2023-12-30T01:06:56.694Z,68.20
2023-12-30T01:09:23.605Z,68.11
2023-12-30T01:11:50.541Z,68.21
2023-12-30T01:14:17.505Z,66.63
2023-12-30T01:16:44.500Z,66.52
2023-12-30T01:19:12.101Z,66.36
2023-12-30T01:21:39.145Z,67.14
2023-12-30T01:24:06.534Z,65.80
2023-12-30T01:26:33.414Z,65.67
2023-12-30T01:29:00.449Z,64.70
2023-12-30T01:31:27.408Z,64.71
2023-12-30T01:33:55.403Z,63.83
2023-12-30T01:36:22.541Z,63.35
2023-12-30T01:38:49.647Z,62.88
2023-12-30T01:41:20.164Z,63.00
2023-12-30T01:43:47.290Z,60.28
2023-12-30T01:46:14.969Z,60.69
2023-12-30T01:48:42.355Z,61.75
2023-12-30T01:51:23.855Z,62.08
2023-12-30T01:53:54.556Z,62.74
2023-12-30T01:56:24.091Z,61.06
2023-12-30T01:58:53.394Z,60.29
2023-12-30T02:01:25.333Z,58.87
2023-12-30T02:03:52.415Z,58.65
2023-12-30T02:06:19.810Z,58.41
2023-12-30T02:08:48.727Z,57.56
2023-12-30T02:11:16.932Z,57.50
2023-12-30T02:13:45.837Z,57.59
2023-12-30T02:16:13.410Z,56.96
2023-12-30T02:18:40.878Z,56.43
2023-12-30T02:21:08.306Z,56.18
2023-12-30T02:23:35.402Z,56.62
2023-12-30T02:26:03.163Z,55.39
2023-12-30T02:28:30.320Z,55.50
2023-12-30T02:30:57.760Z,54.85
2023-12-30T02:33:25.040Z,54.05
2023-12-30T02:35:53.136Z,55.49
2023-12-30T02:38:20.113Z,55.58
2023-12-30T02:40:47.630Z,55.78
2023-12-30T02:43:14.847Z,53.91
2023-12-30T02:45:41.884Z,52.36
2023-12-30T02:48:09.851Z,52.02
2023-12-30T02:50:37.103Z,53.68
2023-12-30T02:53:04.422Z,53.53
2023-12-30T02:55:31.502Z,52.51
2023-12-30T02:57:59.051Z,51.53
2023-12-30T03:00:25.962Z,52.02
2023-12-30T03:05:07.998Z,51.34
2023-12-30T03:07:37.858Z,53.44
2023-12-30T03:10:06.289Z,52.52
2023-12-30T03:12:33.268Z,52.87
2023-12-30T03:15:00.463Z,53.35
2023-12-30T03:17:27.581Z,52.51
2023-12-30T03:19:54.997Z,53.55
2023-12-30T03:22:22.104Z,51.96
2023-12-30T03:24:49.160Z,52.11
2023-12-30T03:27:16.176Z,52.77
2023-12-30T03:29:46.277Z,52.13
2023-12-30T03:32:13.268Z,52.84
2023-12-30T03:34:40.818Z,51.40
2023-12-30T03:37:07.989Z,52.52
2023-12-30T03:39:35.064Z,52.18
2023-12-30T03:42:03.813Z,52.25
2023-12-30T03:44:32.801Z,53.51
2023-12-30T03:46:59.768Z,52.89
2023-12-30T03:49:27.135Z,53.37
2023-12-30T03:51:54.190Z,54.46
2023-12-30T03:54:22.436Z,54.36
2023-12-30T03:56:49.426Z,52.85
2023-12-30T03:59:16.338Z,52.24
2023-12-30T04:01:44.938Z,53.38
2023-12-30T04:04:12.285Z,52.81
2023-12-30T04:06:39.220Z,54.12
2023-12-30T04:09:06.278Z,53.46
2023-12-30T04:11:33.293Z,53.07
2023-12-30T04:14:00.438Z,53.38
2023-12-30T04:16:27.421Z,52.42
2023-12-30T04:18:54.433Z,53.08
2023-12-30T04:21:21.593Z,53.03
2023-12-30T04:23:48.627Z,53.24
2023-12-30T04:26:15.880Z,52.43
2023-12-30T04:28:42.812Z,52.93
2023-12-30T04:31:10.079Z,52.71
2023-12-30T04:33:37.406Z,52.62
2023-12-30T04:36:04.869Z,51.70
2023-12-30T04:38:31.841Z,52.46
2023-12-30T04:40:58.834Z,52.76
2023-12-30T04:43:25.862Z,51.04
2023-12-30T04:45:53.323Z,51.83
2023-12-30T04:48:20.423Z,52.50
2023-12-30T04:50:47.547Z,51.62
2023-12-30T04:53:14.512Z,51.91
2023-12-30T04:55:42.569Z,52.60
2023-12-30T04:58:09.750Z,52.09
2023-12-30T05:00:36.743Z,52.14
2023-12-30T05:03:04.445Z,52.48
2023-12-30T05:05:31.664Z,53.35
2023-12-30T05:07:58.775Z,53.15
2023-12-30T05:10:25.752Z,51.87
2023-12-30T05:12:52.756Z,52.40
2023-12-30T05:15:19.936Z,52.28
2023-12-30T05:17:46.992Z,53.72
2023-12-30T05:20:17.934Z,52.62
2023-12-30T05:22:45.605Z,51.68
2023-12-30T05:25:13.101Z,51.29
2023-12-30T05:27:40.298Z,50.84
2023-12-30T05:30:09.036Z,50.97
2023-12-30T05:32:36.807Z,50.63
2023-12-30T05:35:04.678Z,50.13
2023-12-30T05:37:31.851Z,49.93
2023-12-30T05:39:59.152Z,50.72
2023-12-30T05:42:26.392Z,51.19
2023-12-30T05:44:53.400Z,51.19
2023-12-30T05:47:20.358Z,52.39
2023-12-30T05:49:47.427Z,51.34
2023-12-30T05:52:14.384Z,51.28
2023-12-30T05:54:41.318Z,50.77
2023-12-30T05:57:08.259Z,51.70
2023-12-30T05:59:35.501Z,50.99
2023-12-30T06:02:02.607Z,51.09
2023-12-30T06:04:30.656Z,52.01
2023-12-30T06:06:57.772Z,52.70
2023-12-30T06:09:24.827Z,51.41
2023-12-30T06:11:51.857Z,52.27
2023-12-30T06:14:19.016Z,50.83
2023-12-30T06:16:45.950Z,52.17
2023-12-30T06:19:16.785Z,52.03
2023-12-30T06:21:44.881Z,51.68
2023-12-30T06:24:11.932Z,51.24
2023-12-30T06:26:41.889Z,50.41
2023-12-30T06:29:09.568Z,50.15
2023-12-30T06:31:45.521Z,50.45
2023-12-30T06:34:12.847Z,51.04
2023-12-30T06:36:44.331Z,50.69
2023-12-30T06:39:21.302Z,50.51
2023-12-30T06:41:48.397Z,49.36
2023-12-30T06:44:15.865Z,49.69
2023-12-30T06:46:43.062Z,48.18
2023-12-30T06:49:10.322Z,48.01
2023-12-30T06:51:37.466Z,47.87
2023-12-30T06:54:04.533Z,48.92
2023-12-30T06:56:31.588Z,49.10
2023-12-30T06:58:58.563Z,49.50
2023-12-30T07:01:26.500Z,48.99
2023-12-30T07:03:54.143Z,48.97
2023-12-30T07:06:21.181Z,49.20
2023-12-30T07:08:48.265Z,47.72
2023-12-30T07:11:15.308Z,48.58
2023-12-30T07:13:42.505Z,47.13
2023-12-30T07:16:09.831Z,46.95
2023-12-30T07:18:37.061Z,47.99
2023-12-30T07:21:05.356Z,49.18
2023-12-30T07:23:32.500Z,47.43
2023-12-30T07:26:00.322Z,44.82
2023-12-30T07:28:27.275Z,44.92
2023-12-30T07:30:54.431Z,47.92
2023-12-30T07:33:21.469Z,47.01
2023-12-30T07:35:48.627Z,46.15
2023-12-30T07:38:15.644Z,47.05
2023-12-30T07:40:42.806Z,46.15
2023-12-30T07:43:10.067Z,45.65
2023-12-30T07:45:37.130Z,46.60
2023-12-30T07:48:04.594Z,47.81
2023-12-30T07:50:31.682Z,47.27
2023-12-30T07:52:58.647Z,52.01
2023-12-30T07:55:25.769Z,52.35
2023-12-30T07:57:52.891Z,49.50
2023-12-30T08:00:20.861Z,49.33
2023-12-30T08:02:48.496Z,48.52
2023-12-30T08:05:15.902Z,50.21
2023-12-30T08:07:42.979Z,48.39
2023-12-30T08:10:12.666Z,47.41
2023-12-30T08:12:40.313Z,47.60
2023-12-30T08:15:09.470Z,47.77
2023-12-30T08:17:37.322Z,47.47
2023-12-30T08:20:05.922Z,49.88
2023-12-30T08:22:33.690Z,48.54
2023-12-30T08:25:01.456Z,48.03
2023-12-30T08:27:30.366Z,47.74
2023-12-30T08:29:57.767Z,47.38
2023-12-30T08:32:24.967Z,46.80
2023-12-30T08:34:53.150Z,47.02
2023-12-30T08:37:20.601Z,48.87
2023-12-30T08:39:48.833Z,47.94
2023-12-30T08:42:16.567Z,47.94
2023-12-30T08:44:46.834Z,48.79
2023-12-30T08:47:14.650Z,49.77
2023-12-30T08:49:42.159Z,47.99
2023-12-30T08:52:09.618Z,48.64
2023-12-30T08:54:40.359Z,48.66
2023-12-30T08:57:07.512Z,48.33
2023-12-30T08:59:34.588Z,47.90
2023-12-30T09:02:02.102Z,47.77
2023-12-30T09:04:29.605Z,48.02
2023-12-30T09:06:57.253Z,47.44
2023-12-30T09:09:24.681Z,46.75
2023-12-30T09:11:51.938Z,47.93
2023-12-30T09:14:20.902Z,48.77
2023-12-30T09:16:47.968Z,48.53
2023-12-30T09:19:15.565Z,49.01
2023-12-30T09:21:43.210Z,48.21
2023-12-30T09:24:10.391Z,48.39
2023-12-30T09:26:37.457Z,49.35
2023-12-30T09:29:04.589Z,49.90
2023-12-30T09:31:31.581Z,48.50
2023-12-30T09:33:59.322Z,49.34
2023-12-30T09:36:26.442Z,48.75
2023-12-30T09:38:53.804Z,49.92
2023-12-30T09:41:26.023Z,49.17
2023-12-30T09:43:55.561Z,48.14
2023-12-30T09:46:24.080Z,48.42
2023-12-30T09:48:54.430Z,50.22
2023-12-30T09:51:22.391Z,49.27
2023-12-30T09:53:49.631Z,49.30
2023-12-30T09:56:19.950Z,49.13
2023-12-30T09:58:48.009Z,49.65
2023-12-30T10:01:15.962Z,50.24
2023-12-30T10:03:43.740Z,49.92
2023-12-30T10:06:15.627Z,50.18
2023-12-30T10:08:43.799Z,50.58
2023-12-30T10:11:12.095Z,50.15
2023-12-30T10:13:40.030Z,49.80
2023-12-30T10:16:07.814Z,50.29
2023-12-30T10:18:37.079Z,50.82
2023-12-30T10:21:09.426Z,50.69
2023-12-30T10:23:38.611Z,50.92
2023-12-30T10:26:06.417Z,50.65
2023-12-30T10:28:33.812Z,50.49
2023-12-30T10:31:06.603Z,50.42
2023-12-30T10:33:36.198Z,50.57
2023-12-30T10:36:08.362Z,50.16
2023-12-30T10:38:37.643Z,50.91
2023-12-30T10:41:07.740Z,50.71
2023-12-30T10:43:36.252Z,50.67
2023-12-30T10:46:04.735Z,51.55
2023-12-30T10:48:35.073Z,52.43
2023-12-30T10:51:03.747Z,52.42
2023-12-30T10:53:41.513Z,51.88
2023-12-30T10:56:12.739Z,52.02
2023-12-30T10:58:42.044Z,52.54
2023-12-30T11:01:11.412Z,53.01
2023-12-30T11:03:39.553Z,53.44
2023-12-30T11:06:24.579Z,54.00
2023-12-30T11:09:02.200Z,54.24
2023-12-30T11:11:29.229Z,53.59
2023-12-30T11:13:59.316Z,53.76
2023-12-30T11:16:26.902Z,52.44
2023-12-30T11:18:57.351Z,53.18
2023-12-30T11:21:44.350Z,53.39
2023-12-30T11:24:13.337Z,54.16
2023-12-30T11:26:46.177Z,54.26
2023-12-30T11:29:18.589Z,54.94
2023-12-30T11:31:50.964Z,54.15
2023-12-30T11:34:18.493Z,54.94
2023-12-30T11:36:51.316Z,56.09
2023-12-30T11:39:29.489Z,55.57
2023-12-30T11:41:59.901Z,54.78
2023-12-30T11:44:29.014Z,55.03
2023-12-30T11:46:56.030Z,52.86
2023-12-30T11:49:25.428Z,54.26
2023-12-30T11:52:06.188Z,53.37
2023-12-30T11:54:34.445Z,52.19
2023-12-30T11:57:02.074Z,52.26
2023-12-30T11:59:29.639Z,51.19
2023-12-30T12:02:13.457Z,52.37
2023-12-30T12:04:42.186Z,52.43
2023-12-30T12:07:09.311Z,52.04
2023-12-30T12:09:39.031Z,52.19
2023-12-30T12:12:06.867Z,52.30
2023-12-30T12:14:34.278Z,52.52
2023-12-30T12:17:06.226Z,53.21
2023-12-30T12:19:33.318Z,52.84
2023-12-30T12:22:03.501Z,53.32
2023-12-30T12:24:33.425Z,53.44
2023-12-30T12:27:00.454Z,55.85
2023-12-30T12:29:27.567Z,63.45
2023-12-30T12:31:54.528Z,65.61
2023-12-30T12:34:26.930Z,53.96
2023-12-30T12:36:55.290Z,50.79
2023-12-30T12:39:22.273Z,50.72
2023-12-30T12:41:49.744Z,55.47
2023-12-30T12:44:16.672Z,54.37
2023-12-30T12:46:43.690Z,58.49
2023-12-30T12:49:10.804Z,56.68
2023-12-30T12:51:40.653Z,54.08
2023-12-30T12:54:07.996Z,51.64
2023-12-30T12:56:35.287Z,50.49
2023-12-30T12:59:02.249Z,49.64
2023-12-30T13:01:29.551Z,50.25
2023-12-30T13:03:59.315Z,49.97
2023-12-30T13:06:26.460Z,49.78
2023-12-30T13:08:57.381Z,50.97
2023-12-30T13:11:28.492Z,51.62
2023-12-30T13:13:56.906Z,50.94
2023-12-30T13:16:27.747Z,49.94
2023-12-30T13:18:54.880Z,57.33
2023-12-30T13:21:21.888Z,58.75
2023-12-30T13:23:51.234Z,52.48
2023-12-30T13:26:19.850Z,49.93
2023-12-30T13:28:47.454Z,50.00
2023-12-30T13:31:18.672Z,49.47
2023-12-30T13:33:46.088Z,49.60
2023-12-30T13:36:13.509Z,50.00
2023-12-30T13:38:46.347Z,48.57
2023-12-30T13:41:20.663Z,49.83
2023-12-30T13:43:58.898Z,49.64
2023-12-30T13:46:38.598Z,50.31
2023-12-30T13:49:10.569Z,49.56
2023-12-30T13:51:39.071Z,50.41
2023-12-30T13:54:06.034Z,50.17
2023-12-30T13:56:37.141Z,51.50
2023-12-30T13:59:09.895Z,50.45
2023-12-30T14:01:38.615Z,49.20
2023-12-30T14:04:09.115Z,49.13
2023-12-30T14:06:39.536Z,48.74
2023-12-30T14:09:25.606Z,49.26
2023-12-30T14:11:59.171Z,49.87
2023-12-30T14:14:30.579Z,50.49
2023-12-30T14:16:59.842Z,56.02
2023-12-30T14:19:26.887Z,53.03
2023-12-30T14:21:53.919Z,50.88
2023-12-30T14:24:21.078Z,49.91
2023-12-30T14:26:48.208Z,49.50
2023-12-30T14:29:15.194Z,49.64
2023-12-30T14:31:42.256Z,49.83
2023-12-30T14:34:10.951Z,50.61
2023-12-30T14:36:38.363Z,51.19
2023-12-30T14:39:09.531Z,50.63
2023-12-30T14:41:38.225Z,48.72
2023-12-30T14:44:05.497Z,54.99
2023-12-30T14:46:32.739Z,49.21
2023-12-30T14:49:00.386Z,47.60
2023-12-30T14:51:28.592Z,48.00
2023-12-30T14:53:55.629Z,48.41
2023-12-30T14:56:24.155Z,48.60
2023-12-30T14:58:51.289Z,48.46
2023-12-30T15:01:18.445Z,48.47
2023-12-30T15:03:45.504Z,47.70
2023-12-30T15:06:14.026Z,48.55
2023-12-30T15:08:41.211Z,48.73
2023-12-30T15:11:10.052Z,50.47
2023-12-30T15:13:37.097Z,49.05
2023-12-30T15:16:04.478Z,49.96
2023-12-30T15:18:32.150Z,49.91
2023-12-30T15:21:00.536Z,49.27
2023-12-30T15:23:28.460Z,48.86
2023-12-30T15:25:55.511Z,50.55
2023-12-30T15:28:22.555Z,49.76
2023-12-30T15:30:50.385Z,49.77
2023-12-30T15:33:17.797Z,50.02
2023-12-30T15:35:44.912Z,48.20
2023-12-30T15:38:11.975Z,47.89
2023-12-30T15:40:41.996Z,47.61
2023-12-30T15:43:10.503Z,47.73
2023-12-30T15:45:38.107Z,49.17
2023-12-30T15:48:05.659Z,48.30
2023-12-30T15:50:32.679Z,48.74
2023-12-30T15:52:59.762Z,48.31
2023-12-30T15:55:26.780Z,50.26
2023-12-30T15:57:53.749Z,48.65
2023-12-30T16:00:20.960Z,49.33
2023-12-30T16:02:47.962Z,48.54
2023-12-30T16:05:15.002Z,48.64
2023-12-30T16:07:42.227Z,48.45
2023-12-30T16:10:09.719Z,48.64
2023-12-30T16:12:37.098Z,50.18
2023-12-30T16:15:04.719Z,48.73
2023-12-30T16:17:31.785Z,48.74
2023-12-30T16:20:00.052Z,67.29
2023-12-30T16:22:27.518Z,49.50
2023-12-30T16:24:54.799Z,48.99
2023-12-30T16:27:22.710Z,51.07
2023-12-30T16:29:50.545Z,51.50
2023-12-30T16:32:17.679Z,54.62
2023-12-30T16:34:44.733Z,52.26
2023-12-30T16:37:12.116Z,49.90
2023-12-30T16:39:41.188Z,49.89
2023-12-30T16:42:08.918Z,50.32
2023-12-30T16:44:35.996Z,50.49
2023-12-30T16:47:03.478Z,50.45
2023-12-30T16:49:30.951Z,50.16
2023-12-30T16:51:58.142Z,48.52
2023-12-30T16:54:25.122Z,50.41
2023-12-30T16:56:53.284Z,50.11
2023-12-30T16:59:20.374Z,49.74
2023-12-30T17:01:47.422Z,48.94
2023-12-30T17:04:14.480Z,49.59
2023-12-30T17:06:41.492Z,49.56
2023-12-30T17:09:08.396Z,48.88
2023-12-30T17:11:40.561Z,50.06
2023-12-30T17:14:10.913Z,51.31
2023-12-30T17:16:38.200Z,49.97
2023-12-30T17:19:05.312Z,49.75
2023-12-30T17:21:33.652Z,50.06
2023-12-30T17:24:00.653Z,49.91
2023-12-30T17:26:27.514Z,50.37
2023-12-30T17:28:54.486Z,48.88
2023-12-30T17:31:22.223Z,49.01
2023-12-30T17:33:49.205Z,48.97
2023-12-30T17:36:17.494Z,49.61
2023-12-30T17:38:44.498Z,50.48
2023-12-30T17:41:12.011Z,51.41
2023-12-30T17:43:39.079Z,52.39
2023-12-30T17:46:06.169Z,51.09
2023-12-30T17:48:33.256Z,50.05
2023-12-30T17:51:00.288Z,49.86
2023-12-30T17:53:29.140Z,50.50
2023-12-30T17:55:56.207Z,51.61
2023-12-30T17:58:23.343Z,51.05
2023-12-30T18:00:51.435Z,53.43
2023-12-30T18:03:18.930Z,50.70
2023-12-30T18:05:46.033Z,50.35
2023-12-30T18:08:13.029Z,50.63
2023-12-30T18:10:39.913Z,50.77
2023-12-30T18:13:07.097Z,49.04
2023-12-30T18:15:34.057Z,51.50
2023-12-30T18:18:01.235Z,52.94
2023-12-30T18:20:29.215Z,51.71
2023-12-30T18:22:56.148Z,52.24
2023-12-30T18:25:23.131Z,48.59
2023-12-30T18:27:50.094Z,46.42
2023-12-30T18:30:17.360Z,48.92
2023-12-30T18:32:44.547Z,50.28
2023-12-30T18:35:12.387Z,53.90
2023-12-30T18:37:39.501Z,55.95
2023-12-30T18:40:09.559Z,53.59
2023-12-30T18:42:38.449Z,52.75
2023-12-30T18:45:05.970Z,54.89
2023-12-30T18:47:33.050Z,57.69
2023-12-30T18:50:00.052Z,62.89
2023-12-30T18:52:27.340Z,64.69
2023-12-30T18:54:55.608Z,63.61
2023-12-30T18:57:23.043Z,64.06
2023-12-30T18:59:50.064Z,62.69
2023-12-30T19:02:17.802Z,62.63
2023-12-30T19:04:45.682Z,61.39
2023-12-30T19:07:12.876Z,60.55
2023-12-30T19:09:39.938Z,59.62
2023-12-30T19:12:07.469Z,60.04
2023-12-30T19:14:34.342Z,58.33
2023-12-30T19:17:01.405Z,58.55
2023-12-30T19:19:28.427Z,59.16
2023-12-30T19:21:55.363Z,58.38
2023-12-30T19:24:22.338Z,59.91
2023-12-30T19:26:49.400Z,59.47
2023-12-30T19:29:20.996Z,54.19
2023-12-30T19:31:48.282Z,56.25
2023-12-30T19:34:15.610Z,58.21
2023-12-30T19:36:44.359Z,55.92
2023-12-30T19:39:11.418Z,55.25
2023-12-30T19:41:39.013Z,56.44
2023-12-30T19:44:06.762Z,56.79
2023-12-30T19:46:33.862Z,56.37
2023-12-30T19:49:04.875Z,56.04
2023-12-30T19:51:32.577Z,55.92
2023-12-30T19:53:59.576Z,59.14
2023-12-30T19:56:26.766Z,58.10
2023-12-30T19:58:53.705Z,58.22
2023-12-30T20:01:24.925Z,58.98
2023-12-30T20:03:52.775Z,60.32
2023-12-30T20:06:20.002Z,60.71
2023-12-30T20:08:47.077Z,60.53
2023-12-30T20:11:14.082Z,60.83
2023-12-30T20:13:41.332Z,61.73
2023-12-30T20:16:08.931Z,60.21
2023-12-30T20:18:36.426Z,60.53
2023-12-30T20:21:04.623Z,62.33
2023-12-30T20:23:34.435Z,63.02
2023-12-30T20:26:02.790Z,62.46
2023-12-30T20:28:29.871Z,64.73
2023-12-30T20:30:56.918Z,63.30
2023-12-30T20:33:23.963Z,64.36
2023-12-30T20:35:51.053Z,63.66
2023-12-30T20:38:18.055Z,64.31
2023-12-30T20:40:47.056Z,62.47
2023-12-30T20:43:14.551Z,65.23
2023-12-30T20:49:01.724Z,68.61
2023-12-30T20:52:06.128Z,67.91
2023-12-30T20:54:33.609Z,67.13
2023-12-30T20:57:00.575Z,65.99
2023-12-30T20:59:27.519Z,66.97
2023-12-30T21:01:55.559Z,67.17
2023-12-30T21:04:22.587Z,66.01
2023-12-30T21:06:49.585Z,63.88
2023-12-30T21:09:17.794Z,62.77
2023-12-30T21:11:46.067Z,64.35
2023-12-30T21:14:13.008Z,64.43
2023-12-30T21:16:42.204Z,64.79
2023-12-30T21:19:10.782Z,64.21
2023-12-30T21:21:40.453Z,64.39
2023-12-30T21:24:07.903Z,64.80
2023-12-30T21:26:34.903Z,63.24
2023-12-30T21:29:01.856Z,63.23
2023-12-30T21:31:30.215Z,64.39
2023-12-30T21:33:57.190Z,63.20
2023-12-30T21:36:25.475Z,66.73
2023-12-30T21:38:52.916Z,67.56
2023-12-30T21:41:24.698Z,69.32
2023-12-30T21:43:51.790Z,64.29
2023-12-30T21:46:18.850Z,65.77
2023-12-30T21:48:46.044Z,66.42
2023-12-30T21:51:14.556Z,65.54
2023-12-30T21:53:46.190Z,62.78
2023-12-30T21:56:13.875Z,64.61
2023-12-30T21:58:40.956Z,62.10
2023-12-30T22:01:11.261Z,62.81
2023-12-30T22:03:38.992Z,63.86
2023-12-30T22:06:06.874Z,62.41
2023-12-30T22:08:33.932Z,63.32
2023-12-30T22:11:01.060Z,62.77
2023-12-30T22:13:27.970Z,67.11
2023-12-30T22:15:54.916Z,65.87
2023-12-30T22:18:21.873Z,64.97
2023-12-30T22:20:48.876Z,65.91
2023-12-30T22:23:17.034Z,65.38
2023-12-30T22:25:44.928Z,64.67
2023-12-30T22:28:11.952Z,65.30
2023-12-30T22:30:39.731Z,67.51
2023-12-30T22:33:06.907Z,64.91
2023-12-30T22:35:34.015Z,64.54
2023-12-30T22:38:02.262Z,69.35
2023-12-30T22:40:29.396Z,68.56
2023-12-30T22:42:56.948Z,66.04
2023-12-30T22:45:24.295Z,65.41
2023-12-30T22:47:51.391Z,65.07
2023-12-30T22:50:22.014Z,66.17
2023-12-30T22:52:50.106Z,65.61
2023-12-30T22:55:17.572Z,64.50
2023-12-30T22:57:45.114Z,67.24
2023-12-30T23:00:15.061Z,66.11
2023-12-30T23:02:42.143Z,65.27
2023-12-30T23:05:09.871Z,64.06
2023-12-30T23:07:37.091Z,65.10
2023-12-30T23:10:05.842Z,64.84
2023-12-30T23:12:32.887Z,61.76
2023-12-30T23:15:00.067Z,61.81
2023-12-30T23:17:27.166Z,65.09
2023-12-30T23:19:54.155Z,65.84
2023-12-30T23:22:21.154Z,64.00
2023-12-30T23:24:48.103Z,64.72
2023-12-30T23:27:15.378Z,66.34
2023-12-30T23:29:42.412Z,67.46
2023-12-30T23:32:09.326Z,67.67
2023-12-30T23:34:43.210Z,65.18
2023-12-30T23:37:16.488Z,66.24
2023-12-30T23:39:46.040Z,67.09
2023-12-30T23:42:13.218Z,68.46
2023-12-30T23:44:40.107Z,69.19
2023-12-30T23:47:07.240Z,67.21
2023-12-30T23:49:34.195Z,67.38
2023-12-30T23:52:01.606Z,70.89
2023-12-30T23:54:28.554Z,72.13
2023-12-30T23:56:57.108Z,71.70
2023-12-30T23:59:24.209Z,71.93
